Time;durP1;ratioP1;P1;durP2;ratioP2;P2;SDS_P1;SDS_P2;PMS_P1;PMS_P2;Temp;Humidity;BMP_temperature;BMP_pressure;BME280_temperature;BME280_humidity;BME280_pressure;Samples;Min_cycle;Max_cycle;Signal;HPM_P1;HPM_P2
2022/03/10 00:00:10;;;;;;;;;;;7.80;99.90;8.60;100142.00;;;;348490;27;92569;-86
2022/03/10 00:00:22;;;;;;;;;;;7.80;99.90;8.50;100148.00;;;;348290;27;91955;-85
2022/03/10 00:00:33;;;;;;;;;;;7.90;99.90;8.50;100139.00;;;;347111;28;92380;-86
2022/03/10 00:00:45;;;;;;;;;;;7.80;99.90;8.50;100135.00;;;;345444;28;91414;-85
2022/03/10 00:00:57;;;;;;;;;;;7.80;99.90;8.50;100138.00;;;;345698;28;94081;-85
2022/03/10 00:01:09;;;;;;;;;;;7.90;99.90;8.50;100147.00;;;;342845;28;91099;-86
2022/03/10 00:01:22;;;;;;;;;;;7.90;99.90;8.40;100139.00;;;;345667;28;93850;-85
2022/03/10 00:01:34;;;;;;;;;;;7.80;99.90;8.40;100139.00;;;;344998;28;92131;-86
2022/03/10 00:01:46;;;;;;;;;;;7.80;99.90;8.40;100140.00;;;;346891;28;96814;-86
2022/03/10 00:01:58;;;;;;;;;;;7.80;99.90;8.40;100140.00;;;;346228;27;91978;-85
2022/03/10 00:02:10;;;;;;;;;;;7.80;99.90;8.40;100147.00;;;;347129;28;93926;-85
2022/03/10 00:02:22;;;;;;;;;;;7.90;99.90;8.40;100139.00;;;;345457;28;91995;-85
2022/03/10 00:02:35;;;;;;;;;;;7.90;99.90;8.40;100144.00;;;;345530;28;95045;-85
2022/03/10 00:02:47;;;;;;;;;;;7.90;99.90;8.40;100143.00;;;;345336;28;91322;-85
2022/03/10 00:02:59;;;;;;;;;;;7.80;99.90;8.50;100138.00;;;;342982;28;95826;-85
2022/03/10 00:03:10;;;;;;;;;;;7.90;99.90;8.50;100142.00;;;;344141;28;91770;-85
2022/03/10 00:03:23;;;;;;;;;;;7.90;99.90;8.50;100131.00;;;;344243;28;94041;-85
2022/03/10 00:03:34;;;;;;;;;;;7.80;99.90;8.50;100136.00;;;;345503;28;92049;-85
2022/03/10 00:03:46;;;;;;;;;;;7.90;99.90;8.50;100139.00;;;;345745;28;93883;-85
2022/03/10 00:03:58;;;;;;;;;;;7.90;99.90;8.40;100146.00;;;;345455;28;92022;-85
2022/03/10 00:04:10;;;;;;;;;;;7.90;99.90;8.40;100140.00;;;;345801;28;93427;-85
2022/03/10 00:04:22;;;;;;;;;;;7.90;99.90;8.40;100134.00;;;;346830;28;91911;-85
2022/03/10 00:04:37;;;;;;;;;;;7.80;99.90;8.40;100139.00;;;;347902;27;93783;-85
2022/03/10 00:04:49;;;;;;;;;;;7.90;99.90;8.50;100144.00;;;;348008;27;91413;-85
2022/03/10 00:05:01;;;;;;;;;;;7.90;99.90;8.60;100140.00;;;;348380;27;94253;-85
2022/03/10 00:05:15;;;;;;;;;;;7.90;99.90;8.60;100148.00;;;;348238;27;91930;-85
2022/03/10 00:05:26;;;;;;;;;;;7.90;99.90;8.60;100151.00;;;;347051;28;93871;-85
2022/03/10 00:05:38;;;;;;;;;;;7.90;99.90;8.50;100147.00;;;;346831;28;91981;-85
2022/03/10 00:05:50;;;;;;;;;;;7.90;99.90;8.40;100146.00;;;;347106;28;93446;-85
2022/03/10 00:06:02;;;;;;;;;;;7.90;99.90;8.40;100143.00;;;;346912;27;91146;-85
2022/03/10 00:06:14;;;;;;;;;;;7.90;99.90;8.40;100148.00;;;;347072;28;93619;-85
2022/03/10 00:06:25;;;;;;;;;;;7.90;99.90;8.40;100145.00;;;;346962;28;91132;-86
2022/03/10 00:06:37;;;;;;;;;;;7.90;99.90;8.40;100147.00;;;;345641;28;93921;-85
2022/03/10 00:06:49;;;;;;;;;;;7.90;99.90;8.40;100149.00;;;;346802;28;91209;-85
2022/03/10 00:07:02;;;;;;;;;;;7.90;99.90;8.40;100148.00;;;;345861;28;93041;-85
2022/03/10 00:07:14;;;;;;;;;;;7.90;99.90;8.40;100148.00;;;;346737;28;91928;-85
2022/03/10 00:07:26;;;;;;;;;;;7.90;99.90;8.30;100150.00;;;;346836;28;93813;-85
2022/03/10 00:07:38;;;;;;;;;;;7.90;99.90;8.30;100142.00;;;;346228;28;91964;-85
2022/03/10 00:07:50;;;;;;;;;;;7.90;99.90;8.30;100144.00;;;;342993;28;93469;-86
2022/03/10 00:08:02;;;;;;;;;;;7.90;99.90;8.30;100151.00;;;;344084;28;92087;-85
2022/03/10 00:08:13;;;;;;;;;;;7.90;99.90;8.30;100146.00;;;;344331;28;93680;-85
2022/03/10 00:08:25;;;;;;;;;;;7.90;99.90;8.20;100155.00;;;;343731;28;91276;-85
2022/03/10 00:08:37;;;;;;;;;;;7.80;99.90;8.20;100156.00;;;;345538;28;93346;-85
2022/03/10 00:08:49;;;;;;;;;;;7.80;99.90;8.20;100150.00;;;;345370;28;91275;-85
2022/03/10 00:09:02;;;;;;;;;;;7.80;99.90;8.20;100149.00;;;;345893;28;92831;-85
2022/03/10 00:09:14;;;;;;;;;;;7.80;99.90;8.20;100142.00;;;;348244;27;91922;-85
2022/03/10 00:09:25;;;;;;;;;;;7.80;99.90;8.20;100147.00;;;;347136;27;93665;-85
2022/03/10 00:09:37;;;;;;;;;;;7.80;99.90;8.20;100150.00;;;;348214;27;91921;-85
2022/03/10 00:09:49;;;;;;;;;;;7.80;99.90;8.20;100142.00;;;;345590;28;94841;-85
2022/03/10 00:10:01;;;;;;;;;;;7.80;99.90;8.20;100153.00;;;;345417;28;91877;-85
2022/03/10 00:10:12;;;;;;;;;;;7.80;99.90;8.20;100156.00;;;;345767;28;93484;-85
2022/03/10 00:10:25;;;;;;;;;;;7.80;99.90;8.10;100152.00;;;;345331;28;91843;-85
2022/03/10 00:10:37;;;;;;;;;;;7.80;99.90;8.20;100152.00;;;;345377;28;93562;-85
2022/03/10 00:10:48;;;;;;;;;;;7.80;99.90;8.10;100148.00;;;;345446;28;91316;-85
2022/03/10 00:11:00;;;;;;;;;;;7.80;99.90;8.20;100149.00;;;;347223;28;93082;-85
2022/03/10 00:11:12;;;;;;;;;;;7.80;99.90;8.30;100152.00;;;;343803;28;91794;-85
2022/03/10 00:11:24;;;;;;;;;;;7.70;99.90;8.30;100154.00;;;;344328;28;93837;-85
2022/03/10 00:11:36;;;;;;;;;;;7.70;99.90;8.30;100152.00;;;;345270;28;92108;-85
2022/03/10 00:11:48;;;;;;;;;;;7.80;99.90;8.30;100146.00;;;;345620;28;95882;-85
2022/03/10 00:12:00;;;;;;;;;;;7.80;99.90;8.30;100149.00;;;;345459;28;91950;-85
2022/03/10 00:12:12;;;;;;;;;;;7.80;99.90;8.20;100157.00;;;;344324;28;93337;-85
2022/03/10 00:12:25;;;;;;;;;;;7.70;99.90;8.20;100156.00;;;;344168;28;91959;-85
2022/03/10 00:12:36;;;;;;;;;;;7.70;99.90;8.30;100153.00;;;;344137;28;96609;-85
2022/03/10 00:12:49;;;;;;;;;;;7.70;99.90;8.30;100152.00;;;;344170;28;90346;-85
2022/03/10 00:13:01;;;;;;;;;;;7.70;99.90;8.20;100154.00;;;;342914;28;95269;-85
2022/03/10 00:13:13;;;;;;;;;;;7.70;99.90;8.20;100157.00;;;;342732;28;91889;-85
2022/03/10 00:13:27;;;;;;;;;;;7.70;99.90;8.20;100153.00;;;;342796;28;93506;-85
2022/03/10 00:13:39;;;;;;;;;;;7.70;99.90;8.20;100155.00;;;;343661;28;91987;-85
2022/03/10 00:13:51;;;;;;;;;;;7.80;99.90;8.20;100153.00;;;;344288;28;94035;-85
2022/03/10 00:14:02;;;;;;;;;;;7.70;99.90;8.20;100148.00;;;;344082;28;91226;-85
2022/03/10 00:14:14;;;;;;;;;;;7.70;99.90;8.20;100155.00;;;;344136;28;94273;-85
2022/03/10 00:14:26;;;;;;;;;;;7.70;99.90;8.20;100156.00;;;;345395;28;91146;-85
2022/03/10 00:14:38;;;;;;;;;;;7.70;99.90;8.20;100149.00;;;;345636;28;91784;-85
2022/03/10 00:14:50;;;;;;;;;;;7.70;99.90;8.10;100155.00;;;;345501;28;91137;-85
2022/03/10 00:15:07;;;;;;;;;;;7.70;99.90;8.10;100151.00;;;;345752;28;92798;-85
2022/03/10 00:15:21;;;;;;;;;;;7.70;99.90;8.10;100155.00;;;;344064;28;91226;-85
2022/03/10 00:15:32;;;;;;;;;;;7.70;99.90;8.20;100150.00;;;;344243;28;96273;-85
2022/03/10 00:15:44;;;;;;;;;;;7.70;99.90;8.20;100155.00;;;;344121;28;91982;-85
2022/03/10 00:15:57;;;;;;;;;;;7.70;99.90;8.20;100152.00;;;;345570;28;94614;-85
2022/03/10 00:16:09;;;;;;;;;;;7.70;99.90;8.10;100164.00;;;;345400;28;91972;-85
2022/03/10 00:16:22;;;;;;;;;;;7.70;99.90;8.10;100152.00;;;;345732;28;93216;-85
2022/03/10 00:16:34;;;;;;;;;;;7.70;99.90;8.10;100152.00;;;;345494;28;92156;-86
2022/03/10 00:16:45;;;;;;;;;;;7.70;99.90;8.20;100162.00;;;;347707;27;95342;-85
2022/03/10 00:16:57;;;;;;;;;;;7.70;99.90;8.20;100155.00;;;;348235;27;91207;-85
2022/03/10 00:17:09;;;;;;;;;;;7.70;99.90;8.20;100147.00;;;;345737;28;94799;-85
2022/03/10 00:17:21;;;;;;;;;;;7.70;99.90;8.20;100148.00;;;;343922;28;92185;-85
2022/03/10 00:17:33;;;;;;;;;;;7.70;99.90;8.20;100156.00;;;;343651;28;93213;-85
2022/03/10 00:17:45;;;;;;;;;;;7.70;99.90;8.10;100159.00;;;;344072;28;91980;-85
2022/03/10 00:17:56;;;;;;;;;;;7.70;99.90;8.20;100165.00;;;;344272;28;93436;-86
2022/03/10 00:18:08;;;;;;;;;;;7.70;99.90;8.20;100164.00;;;;345156;28;91873;-85
2022/03/10 00:18:20;;;;;;;;;;;7.70;99.90;8.10;100155.00;;;;344283;28;94854;-85
2022/03/10 00:18:32;;;;;;;;;;;7.70;99.90;8.10;100150.00;;;;345468;28;91798;-85
2022/03/10 00:18:43;;;;;;;;;;;7.70;99.90;8.10;100149.00;;;;347085;28;93796;-85
2022/03/10 00:18:55;;;;;;;;;;;7.70;99.90;8.10;100161.00;;;;346937;28;91279;-85
2022/03/10 00:19:07;;;;;;;;;;;7.70;99.90;8.10;100153.00;;;;344419;28;92527;-86
2022/03/10 00:19:19;;;;;;;;;;;7.70;99.90;8.10;100154.00;;;;344067;28;91907;-85
2022/03/10 00:19:31;;;;;;;;;;;7.70;99.90;8.00;100154.00;;;;345339;28;96289;-86
2022/03/10 00:19:43;;;;;;;;;;;7.70;99.90;8.10;100160.00;;;;344873;28;91906;-85
2022/03/10 00:19:55;;;;;;;;;;;7.70;99.90;8.00;100157.00;;;;348455;27;93398;-85
2022/03/10 00:20:07;;;;;;;;;;;7.60;99.90;8.00;100149.00;;;;345424;28;91992;-85
2022/03/10 00:20:20;;;;;;;;;;;7.60;99.90;8.00;100154.00;;;;344266;28;94825;-85
2022/03/10 00:20:32;;;;;;;;;;;7.60;99.90;7.90;100153.00;;;;344615;28;92001;-85
2022/03/10 00:20:44;;;;;;;;;;;7.60;99.90;7.90;100155.00;;;;345708;28;93946;-85
2022/03/10 00:20:56;;;;;;;;;;;7.60;99.90;7.90;100153.00;;;;346854;28;91220;-85
2022/03/10 00:21:07;;;;;;;;;;;7.60;99.90;7.90;100156.00;;;;347157;28;93071;-85
2022/03/10 00:21:19;;;;;;;;;;;7.60;99.90;7.90;100162.00;;;;345129;28;91963;-85
2022/03/10 00:21:32;;;;;;;;;;;7.50;99.90;7.90;100164.00;;;;345747;28;93467;-85
2022/03/10 00:21:44;;;;;;;;;;;7.60;99.90;7.90;100157.00;;;;346834;28;92011;-85
2022/03/10 00:21:55;;;;;;;;;;;7.50;99.90;7.90;100155.00;;;;347037;28;93120;-85
2022/03/10 00:22:11;;;;;;;;;;;7.50;99.90;7.90;100155.00;;;;345403;28;92062;-85
2022/03/10 00:22:23;;;;;;;;;;;7.60;99.90;8.00;100163.00;;;;348544;27;93249;-85
2022/03/10 00:22:48;;;;;;;;;;;7.50;99.90;8.00;100162.00;;;;346331;28;91982;-85
2022/03/10 00:23:00;;;;;;;;;;;7.50;99.90;8.00;100160.00;;;;347064;27;93830;-85
2022/03/10 00:23:12;;;;;;;;;;;7.50;99.90;8.00;100158.00;;;;348351;27;90289;-85
2022/03/10 00:23:24;;;;;;;;;;;7.50;99.90;8.00;100166.00;;;;345655;28;95609;-85
2022/03/10 00:23:36;;;;;;;;;;;7.50;99.90;8.00;100156.00;;;;346988;27;91987;-85
2022/03/10 00:23:47;;;;;;;;;;;7.50;99.90;7.90;100156.00;;;;345621;28;95148;-85
2022/03/10 00:23:59;;;;;;;;;;;7.50;99.90;7.90;100158.00;;;;345079;28;91274;-85
2022/03/10 00:24:11;;;;;;;;;;;7.50;99.90;7.90;100155.00;;;;347051;28;96519;-84
2022/03/10 00:24:23;;;;;;;;;;;7.50;99.90;7.90;100154.00;;;;348145;27;91993;-85
2022/03/10 00:24:34;;;;;;;;;;;7.50;99.90;7.90;100154.00;;;;348505;27;93048;-85
2022/03/10 00:24:46;;;;;;;;;;;7.50;99.90;7.80;100155.00;;;;348178;27;92077;-85
2022/03/10 00:24:58;;;;;;;;;;;7.40;99.90;7.80;100157.00;;;;348418;27;94770;-85
2022/03/10 00:25:10;;;;;;;;;;;7.50;99.90;7.80;100150.00;;;;348296;27;90365;-85
2022/03/10 00:25:21;;;;;;;;;;;7.50;99.90;7.80;100158.00;;;;348006;27;96298;-85
2022/03/10 00:25:33;;;;;;;;;;;7.40;99.90;7.80;100161.00;;;;347034;27;92286;-85
2022/03/10 00:25:45;;;;;;;;;;;7.40;99.90;7.80;100167.00;;;;347541;27;96607;-85
2022/03/10 00:25:57;;;;;;;;;;;7.40;99.90;7.90;100160.00;;;;346929;27;92004;-85
2022/03/10 00:26:08;;;;;;;;;;;7.40;99.90;7.90;100159.00;;;;347080;28;95938;-84
2022/03/10 00:26:20;;;;;;;;;;;7.40;99.90;7.90;100160.00;;;;346774;28;92087;-85
2022/03/10 00:26:32;;;;;;;;;;;7.40;99.90;7.90;100153.00;;;;347635;27;93482;-85
2022/03/10 00:26:44;;;;;;;;;;;7.40;99.90;7.90;100156.00;;;;345385;28;92053;-85
2022/03/10 00:26:56;;;;;;;;;;;7.40;99.90;7.90;100162.00;;;;345680;28;93154;-85
2022/03/10 00:27:08;;;;;;;;;;;7.40;99.90;7.90;100146.00;;;;348265;27;91104;-85
2022/03/10 00:27:20;;;;;;;;;;;7.40;99.90;7.90;100156.00;;;;346968;28;94192;-85
2022/03/10 00:27:31;;;;;;;;;;;7.40;99.90;7.90;100155.00;;;;346815;28;91886;-85
2022/03/10 00:27:43;;;;;;;;;;;7.40;99.90;7.80;100152.00;;;;345472;28;93034;-85
2022/03/10 00:27:55;;;;;;;;;;;7.40;99.90;7.80;100162.00;;;;348121;27;91111;-85
2022/03/10 00:28:07;;;;;;;;;;;7.40;99.90;7.80;100156.00;;;;347200;28;93532;-85
2022/03/10 00:28:18;;;;;;;;;;;7.40;99.90;7.80;100149.00;;;;346789;28;91973;-85
2022/03/10 00:28:30;;;;;;;;;;;7.40;99.90;7.80;100164.00;;;;347333;27;93561;-85
2022/03/10 00:28:42;;;;;;;;;;;7.40;99.90;7.90;100157.00;;;;346860;27;92009;-85
2022/03/10 00:28:54;;;;;;;;;;;7.40;99.90;7.90;100148.00;;;;348429;27;92262;-85
2022/03/10 00:29:05;;;;;;;;;;;7.40;99.90;7.90;100149.00;;;;346946;28;91104;-85
2022/03/10 00:29:17;;;;;;;;;;;7.40;99.90;7.90;100158.00;;;;345610;28;93229;-85
2022/03/10 00:29:30;;;;;;;;;;;7.40;99.90;7.90;100153.00;;;;345769;28;91788;-85
2022/03/10 00:29:41;;;;;;;;;;;7.40;99.90;7.90;100152.00;;;;347070;28;93909;-85
2022/03/10 00:29:53;;;;;;;;;;;7.40;99.90;7.80;100153.00;;;;346773;28;91917;-85
2022/03/10 00:30:06;;;;;;;;;;;7.40;99.90;7.80;100151.00;;;;347125;28;93004;-85
2022/03/10 00:30:18;;;;;;;;;;;7.40;99.90;7.80;100157.00;;;;346880;28;91931;-85
2022/03/10 00:30:31;;;;;;;;;;;7.40;99.90;7.80;100157.00;;;;348289;27;91475;-85
2022/03/10 00:30:43;;;;;;;;;;;7.40;99.90;7.80;100160.00;;;;346802;28;92039;-85
2022/03/10 00:30:54;;;;;;;;;;;7.40;99.90;7.80;100155.00;;;;347062;28;93742;-85
2022/03/10 00:31:06;;;;;;;;;;;7.40;99.90;7.90;100146.00;;;;345588;28;91112;-85
2022/03/10 00:31:18;;;;;;;;;;;7.40;99.90;7.90;100156.00;;;;345673;28;92740;-85
2022/03/10 00:31:31;;;;;;;;;;;7.40;99.90;7.90;100149.00;;;;344949;28;92172;-85
2022/03/10 00:31:42;;;;;;;;;;;7.40;99.90;7.90;100165.00;;;;345552;28;94123;-85
2022/03/10 00:31:54;;;;;;;;;;;7.40;99.90;7.80;100153.00;;;;346890;28;91971;-85
2022/03/10 00:32:06;;;;;;;;;;;7.40;99.90;7.80;100157.00;;;;344315;28;93793;-85
2022/03/10 00:32:18;;;;;;;;;;;7.40;99.90;7.90;100161.00;;;;344130;28;92288;-85
2022/03/10 00:32:30;;;;;;;;;;;7.40;99.90;7.90;100152.00;;;;346047;28;92740;-85
2022/03/10 00:32:43;;;;;;;;;;;7.40;99.90;7.90;100153.00;;;;346838;28;91840;-85
2022/03/10 00:32:55;;;;;;;;;;;7.40;99.90;7.90;100153.00;;;;347126;28;93320;-85
2022/03/10 00:33:07;;;;;;;;;;;7.40;99.90;7.90;100151.00;;;;346963;28;91076;-85
2022/03/10 00:33:19;;;;;;;;;;;7.40;99.90;7.90;100157.00;;;;348485;27;92725;-85
2022/03/10 00:33:31;;;;;;;;;;;7.40;99.90;8.00;100158.00;;;;348291;27;91097;-85
2022/03/10 00:33:43;;;;;;;;;;;7.40;99.90;8.10;100158.00;;;;345729;28;93446;-85
2022/03/10 00:33:55;;;;;;;;;;;7.40;99.90;8.10;100155.00;;;;346738;28;91928;-85
2022/03/10 00:34:07;;;;;;;;;;;7.40;99.90;8.00;100158.00;;;;345682;28;93478;-85
2022/03/10 00:34:18;;;;;;;;;;;7.40;99.90;7.90;100156.00;;;;345179;28;91946;-85
2022/03/10 00:34:32;;;;;;;;;;;7.40;99.90;7.90;100156.00;;;;345558;28;93886;-85
2022/03/10 00:34:43;;;;;;;;;;;7.40;99.90;7.90;100160.00;;;;347226;27;92135;-85
2022/03/10 00:34:55;;;;;;;;;;;7.40;99.90;7.90;100158.00;;;;348487;27;93560;-85
2022/03/10 00:35:08;;;;;;;;;;;7.40;99.90;7.90;100166.00;;;;345503;28;91271;-85
2022/03/10 00:35:24;;;;;;;;;;;7.40;99.90;7.80;100158.00;;;;345664;28;92724;-85
2022/03/10 00:35:40;;;;;;;;;;;7.40;99.90;7.80;100163.00;;;;345519;28;91983;-85
2022/03/10 00:35:52;;;;;;;;;;;7.40;99.90;7.80;100158.00;;;;345594;28;93629;-85
2022/03/10 00:36:06;;;;;;;;;;;7.40;99.90;7.90;100160.00;;;;346905;28;92108;-86
2022/03/10 00:36:18;;;;;;;;;;;7.40;99.90;8.10;100157.00;;;;345670;28;94178;-85
2022/03/10 00:36:29;;;;;;;;;;;7.40;99.90;8.10;100166.00;;;;345512;28;91920;-85
2022/03/10 00:36:41;;;;;;;;;;;7.40;99.90;8.10;100162.00;;;;344273;28;93449;-85
2022/03/10 00:36:53;;;;;;;;;;;7.40;99.90;8.10;100150.00;;;;344049;28;91994;-85
2022/03/10 00:37:05;;;;;;;;;;;7.50;99.90;8.10;100170.00;;;;345857;28;92826;-84
2022/03/10 00:37:17;;;;;;;;;;;7.40;99.90;8.00;100157.00;;;;347460;27;91374;-85
2022/03/10 00:37:29;;;;;;;;;;;7.40;99.90;8.00;100159.00;;;;345782;28;93088;-85
2022/03/10 00:37:41;;;;;;;;;;;7.40;99.90;8.00;100157.00;;;;343769;28;91997;-85
2022/03/10 00:37:53;;;;;;;;;;;7.50;99.90;8.00;100163.00;;;;344222;28;93500;-85
2022/03/10 00:38:04;;;;;;;;;;;7.50;99.90;8.00;100167.00;;;;343959;28;91341;-85
2022/03/10 00:38:16;;;;;;;;;;;7.50;99.90;8.00;100163.00;;;;345710;28;93700;-85
2022/03/10 00:38:28;;;;;;;;;;;7.50;99.90;8.10;100167.00;;;;345434;28;91916;-85
2022/03/10 00:38:40;;;;;;;;;;;7.50;99.90;8.00;100157.00;;;;345485;28;97032;-85
2022/03/10 00:38:52;;;;;;;;;;;7.40;99.90;8.10;100160.00;;;;345342;28;92043;-85
2022/03/10 00:39:04;;;;;;;;;;;7.50;99.90;8.00;100159.00;;;;345670;28;96522;-85
2022/03/10 00:39:15;;;;;;;;;;;7.50;99.90;8.00;100151.00;;;;345393;28;91159;-85
2022/03/10 00:39:27;;;;;;;;;;;7.50;99.90;8.00;100157.00;;;;344388;28;91916;-85
2022/03/10 00:39:39;;;;;;;;;;;7.40;99.90;8.00;100167.00;;;;346900;28;91116;-85
2022/03/10 00:39:51;;;;;;;;;;;7.40;99.90;8.00;100154.00;;;;345605;28;96093;-85
2022/03/10 00:40:03;;;;;;;;;;;7.40;99.90;8.00;100153.00;;;;345431;28;91994;-85
2022/03/10 00:40:15;;;;;;;;;;;7.40;99.90;8.00;100162.00;;;;344259;28;95443;-85
2022/03/10 00:40:27;;;;;;;;;;;7.40;99.90;8.00;100153.00;;;;345535;28;91897;-85
2022/03/10 00:40:39;;;;;;;;;;;7.50;99.90;8.00;100152.00;;;;346513;28;93932;-85
2022/03/10 00:40:50;;;;;;;;;;;7.50;99.90;8.10;100153.00;;;;345459;28;91008;-85
2022/03/10 00:41:02;;;;;;;;;;;7.50;99.90;8.10;100155.00;;;;348038;27;93611;-85
2022/03/10 00:41:14;;;;;;;;;;;7.40;99.90;8.10;100154.00;;;;345225;28;91783;-85
2022/03/10 00:41:26;;;;;;;;;;;7.50;99.90;8.10;100160.00;;;;345644;28;93126;-85
2022/03/10 00:41:38;;;;;;;;;;;7.50;99.90;8.10;100161.00;;;;345467;28;91922;-85
2022/03/10 00:41:49;;;;;;;;;;;7.50;99.90;8.00;100157.00;;;;347060;28;92927;-85
2022/03/10 00:42:01;;;;;;;;;;;7.50;99.90;7.90;100157.00;;;;346868;27;91797;-85
2022/03/10 00:42:13;;;;;;;;;;;7.50;99.90;8.00;100158.00;;;;342916;28;93761;-85
2022/03/10 00:42:25;;;;;;;;;;;7.40;99.90;8.10;100161.00;;;;342797;28;91858;-85
2022/03/10 00:42:37;;;;;;;;;;;7.50;99.90;8.00;100164.00;;;;342939;28;93180;-85
2022/03/10 00:42:49;;;;;;;;;;;7.50;99.90;8.10;100159.00;;;;344131;28;91873;-85
2022/03/10 00:43:01;;;;;;;;;;;7.50;99.90;8.00;100153.00;;;;345792;28;92476;-85
2022/03/10 00:43:13;;;;;;;;;;;7.40;99.90;7.90;100154.00;;;;345268;28;91648;-85
2022/03/10 00:43:25;;;;;;;;;;;7.40;99.90;7.90;100160.00;;;;346920;28;92670;-85
2022/03/10 00:43:36;;;;;;;;;;;7.40;99.90;7.90;100156.00;;;;346658;28;91968;-85
2022/03/10 00:43:48;;;;;;;;;;;7.40;99.90;7.80;100163.00;;;;346998;28;93552;-85
2022/03/10 00:44:00;;;;;;;;;;;7.40;99.90;7.90;100161.00;;;;346691;28;93427;-85
2022/03/10 00:44:12;;;;;;;;;;;7.40;99.90;7.90;100152.00;;;;347151;28;92325;-85
2022/03/10 00:44:24;;;;;;;;;;;7.40;99.90;7.90;100162.00;;;;346886;28;91870;-85
2022/03/10 00:44:36;;;;;;;;;;;7.40;99.90;7.90;100162.00;;;;344150;28;96540;-85
2022/03/10 00:44:48;;;;;;;;;;;7.40;99.90;7.80;100164.00;;;;346838;28;91879;-85
2022/03/10 00:44:59;;;;;;;;;;;7.40;99.90;8.00;100155.00;;;;346941;28;93434;-85
2022/03/10 00:45:12;;;;;;;;;;;7.40;99.90;8.10;100158.00;;;;346493;28;91324;-85
2022/03/10 00:45:25;;;;;;;;;;;7.40;99.90;8.10;100160.00;;;;345743;28;93033;-85
2022/03/10 00:45:37;;;;;;;;;;;7.40;99.90;8.10;100152.00;;;;346844;28;91031;-85
2022/03/10 00:45:49;;;;;;;;;;;7.40;99.90;8.10;100163.00;;;;347106;28;94836;-85
2022/03/10 00:46:02;;;;;;;;;;;7.40;99.90;8.10;100165.00;;;;348216;27;92078;-85
2022/03/10 00:46:14;;;;;;;;;;;7.40;99.90;8.10;100155.00;;;;345657;28;93230;-85
2022/03/10 00:46:25;;;;;;;;;;;7.40;99.90;8.10;100166.00;;;;346478;28;91827;-85
2022/03/10 00:46:37;;;;;;;;;;;7.50;99.90;8.10;100160.00;;;;345121;28;93012;-85
2022/03/10 00:46:49;;;;;;;;;;;7.40;99.90;8.00;100149.00;;;;344107;28;91879;-85
2022/03/10 00:47:01;;;;;;;;;;;7.50;99.90;8.00;100159.00;;;;345252;28;95486;-85
2022/03/10 00:47:12;;;;;;;;;;;7.50;99.90;8.00;100158.00;;;;344040;28;91312;-85
2022/03/10 00:47:24;;;;;;;;;;;7.50;99.90;8.00;100174.00;;;;344606;28;93007;-85
2022/03/10 00:47:36;;;;;;;;;;;7.40;99.90;7.90;100156.00;;;;344156;28;91226;-86
2022/03/10 00:47:48;;;;;;;;;;;7.40;99.90;8.00;100162.00;;;;344633;28;93156;-85
2022/03/10 00:48:00;;;;;;;;;;;7.40;99.90;8.00;100154.00;;;;342890;28;92126;-85
2022/03/10 00:48:11;;;;;;;;;;;7.40;99.90;8.00;100164.00;;;;344200;28;96211;-85
2022/03/10 00:48:23;;;;;;;;;;;7.40;99.90;8.00;100168.00;;;;344181;28;92081;-86
2022/03/10 00:48:36;;;;;;;;;;;7.50;99.90;8.00;100165.00;;;;347265;27;93516;-85
2022/03/10 00:48:49;;;;;;;;;;;7.50;99.90;8.00;100162.00;;;;345727;28;91898;-85
2022/03/10 00:49:01;;;;;;;;;;;7.50;99.90;7.90;100158.00;;;;345916;28;94454;-85
2022/03/10 00:49:13;;;;;;;;;;;7.50;99.90;7.90;100164.00;;;;345543;28;91207;-85
2022/03/10 00:49:24;;;;;;;;;;;7.40;99.90;7.90;100160.00;;;;345922;28;92453;-85
2022/03/10 00:49:36;;;;;;;;;;;7.40;99.90;7.90;100166.00;;;;346845;28;91974;-85
2022/03/10 00:49:49;;;;;;;;;;;7.40;99.90;7.90;100166.00;;;;347207;28;95036;-84
2022/03/10 00:50:01;;;;;;;;;;;7.40;99.90;7.80;100163.00;;;;347748;27;92086;-85
2022/03/10 00:50:13;;;;;;;;;;;7.40;99.90;7.80;100165.00;;;;347300;28;93960;-85
2022/03/10 00:50:25;;;;;;;;;;;7.40;99.90;7.80;100157.00;;;;345785;28;91886;-85
2022/03/10 00:50:37;;;;;;;;;;;7.40;99.90;7.80;100158.00;;;;345811;28;93883;-85
2022/03/10 00:50:50;;;;;;;;;;;7.40;99.90;7.80;100163.00;;;;347023;28;91847;-85
2022/03/10 00:51:02;;;;;;;;;;;7.40;99.90;7.80;100179.00;;;;345742;28;93746;-85
2022/03/10 00:51:14;;;;;;;;;;;7.40;99.90;7.70;100162.00;;;;345638;28;91214;-85
2022/03/10 00:51:26;;;;;;;;;;;7.40;99.90;7.80;100168.00;;;;346028;28;93072;-85
2022/03/10 00:51:38;;;;;;;;;;;7.40;99.90;8.00;100167.00;;;;345761;28;91946;-85
2022/03/10 00:51:50;;;;;;;;;;;7.40;99.90;8.10;100166.00;;;;347239;28;96750;-85
2022/03/10 00:52:03;;;;;;;;;;;7.40;99.90;8.10;100163.00;;;;344193;28;92035;-85
2022/03/10 00:52:14;;;;;;;;;;;7.40;99.90;8.10;100168.00;;;;347270;28;93032;-85
2022/03/10 00:52:27;;;;;;;;;;;7.40;99.90;8.10;100165.00;;;;345754;27;91930;-85
2022/03/10 00:52:40;;;;;;;;;;;7.40;99.90;8.00;100167.00;;;;346847;28;93804;-85
2022/03/10 00:52:52;;;;;;;;;;;7.40;99.90;7.90;100159.00;;;;345586;28;91919;-85
2022/03/10 00:53:03;;;;;;;;;;;7.40;99.90;7.90;100164.00;;;;346952;28;94838;-85
2022/03/10 00:53:15;;;;;;;;;;;7.40;99.90;7.90;100162.00;;;;347044;28;90435;-85
2022/03/10 00:53:27;;;;;;;;;;;7.40;99.90;7.90;100159.00;;;;347179;28;95649;-85
2022/03/10 00:53:39;;;;;;;;;;;7.40;99.90;7.90;100162.00;;;;345757;28;91963;-85
2022/03/10 00:53:51;;;;;;;;;;;7.40;99.90;7.90;100162.00;;;;347350;28;92439;-85
2022/03/10 00:54:02;;;;;;;;;;;7.40;99.90;8.00;100167.00;;;;347010;28;92057;-85
2022/03/10 00:54:14;;;;;;;;;;;7.40;99.90;7.90;100167.00;;;;347214;28;93944;-85
2022/03/10 00:54:26;;;;;;;;;;;7.40;99.90;8.00;100163.00;;;;346954;28;91819;-85
2022/03/10 00:54:38;;;;;;;;;;;7.40;99.90;8.00;100163.00;;;;347115;28;93379;-85
2022/03/10 00:54:51;;;;;;;;;;;7.40;99.90;7.90;100164.00;;;;345735;28;91913;-85
2022/03/10 00:55:03;;;;;;;;;;;7.40;99.90;7.90;100168.00;;;;343222;28;92739;-85
2022/03/10 00:55:18;;;;;;;;;;;7.40;99.90;7.90;100174.00;;;;345613;28;91232;-85
2022/03/10 00:55:29;;;;;;;;;;;7.40;99.90;7.90;100168.00;;;;345991;28;92826;-85
2022/03/10 00:55:41;;;;;;;;;;;7.40;99.90;7.80;100178.00;;;;346693;28;91976;-85
2022/03/10 00:55:53;;;;;;;;;;;7.40;99.90;7.80;100175.00;;;;345859;28;93523;-85
2022/03/10 00:56:05;;;;;;;;;;;7.30;99.90;7.80;100169.00;;;;345609;28;92068;-85
2022/03/10 00:56:16;;;;;;;;;;;7.40;99.90;7.90;100168.00;;;;347229;28;93567;-85
2022/03/10 00:56:28;;;;;;;;;;;7.40;99.90;8.00;100171.00;;;;347229;27;91870;-85
2022/03/10 00:56:40;;;;;;;;;;;7.40;99.90;8.00;100171.00;;;;348712;27;93043;-85
2022/03/10 00:56:52;;;;;;;;;;;7.40;99.90;7.90;100173.00;;;;348492;27;91850;-85
2022/03/10 00:57:03;;;;;;;;;;;7.30;99.90;7.90;100167.00;;;;347366;28;93272;-85
2022/03/10 00:57:15;;;;;;;;;;;7.40;99.90;7.90;100162.00;;;;348473;27;91122;-85
2022/03/10 00:57:27;;;;;;;;;;;7.30;99.90;7.80;100168.00;;;;347386;28;92352;-85
2022/03/10 00:57:39;;;;;;;;;;;7.30;99.90;7.90;100163.00;;;;349900;27;91944;-85
2022/03/10 00:57:53;;;;;;;;;;;7.30;99.90;8.00;100173.00;;;;348347;27;96051;-85
2022/03/10 00:58:04;;;;;;;;;;;7.30;99.90;8.00;100168.00;;;;345513;28;91198;-85
2022/03/10 00:58:16;;;;;;;;;;;7.30;99.90;7.90;100171.00;;;;345924;28;93653;-85
2022/03/10 00:58:28;;;;;;;;;;;7.40;99.90;8.00;100181.00;;;;343809;28;92041;-85
2022/03/10 00:58:40;;;;;;;;;;;7.40;99.90;7.90;100177.00;;;;344611;28;93483;-85
2022/03/10 00:58:52;;;;;;;;;;;7.40;99.90;7.80;100172.00;;;;345689;28;91917;-85
2022/03/10 00:59:04;;;;;;;;;;;7.40;99.90;7.80;100176.00;;;;345814;28;95158;-85
2022/03/10 00:59:16;;;;;;;;;;;7.40;99.90;7.90;100174.00;;;;345702;28;90375;-85
2022/03/10 00:59:28;;;;;;;;;;;7.40;99.90;8.00;100177.00;;;;345863;28;92444;-85
2022/03/10 00:59:39;;;;;;;;;;;7.30;99.90;8.00;100173.00;;;;344199;28;91953;-85
2022/03/10 00:59:52;;;;;;;;;;;7.40;99.90;8.10;100171.00;;;;344504;28;93851;-85
2022/03/10 01:00:05;;;;;;;;;;;7.40;99.90;8.00;100171.00;;;;344179;28;91235;-85
2022/03/10 01:00:17;;;;;;;;;;;7.40;99.90;8.00;100169.00;;;;345942;28;93639;-85
2022/03/10 01:00:29;;;;;;;;;;;7.40;99.90;8.10;100173.00;;;;345292;28;93134;-85
2022/03/10 01:00:41;;;;;;;;;;;7.40;99.90;8.10;100181.00;;;;347682;27;92674;-85